• Join FlightAware (Why Join?)
  • Login
  • US Flag 
09:29PM EDT


 

Airport Tracker/Info


-or-


 

Live Flight TrackerFlight Track Log ✈ AWE3397 ✈ 20-Apr-2013 ✈ KMHT - KPHL

Flight Track Log - Related Links

Times and Time Zones

All times are in EDT time to prevent confusion due to time zone crossing. See the AWE3397 flight status page for this flight to view local times or setup timezone preferences in your user account.

Time Position Orientation Groundspeed Altitude Reporting Facility
EDT Latitude Longitude Course Direction KTS MPH feet Rate Location/Type
05:32AM 42.9500 -71.4333 270° West 131 151 1,100  Level KA90
05:34AM 43.0000 -71.4667 334° Northwest 186 214 3,200 1,560 Climbing KA90
05:34AM 43.0153 -71.4803 327° Northwest 220 253 3,500 1,680 Climbing Boston Center
05:35AM 43.0431 -71.5481 299° West 247 284 5,400 2,700 Climbing Boston Center
05:36AM 43.0792 -71.6442 297° West 259 298 9,000 2,700 Climbing Boston Center
05:37AM 42.9500 -72.0052 270° West  Level FlightAware Approximate
05:37AM 43.0733 -71.7239 264° West 239 275 10,900  Level Boston Center
05:38AM 42.9501 -72.1207 270° West  Level FlightAware Approximate
05:38AM 43.0700 -71.8375 268° West 260 299 13,300  Level Boston Center
05:39AM 43.0661 -71.9342 267° West 280 322 15,100 2,220 Climbing Boston Center
05:40AM 43.0603 -72.0508 266° West 287 330 17,800 2,220 Climbing Boston Center
05:41AM 43.0567 -72.1617 267° West 293 337 19,600 1,860 Climbing Boston Center
05:42AM 43.0525 -72.2725 267° West 293 337 21,600 1,800 Climbing Boston Center
05:43AM 43.0506 -72.3719 269° West 293 337 23,200 1,440 Climbing Boston Center
05:44AM 43.0486 -72.4797 269° West 293 337 24,500 1,140 Climbing Boston Center
05:45AM 43.0422 -72.5964 266° West 293 337 25,500 720 Climbing Boston Center
05:46AM 43.0108 -72.7156 250° West 316 364 26,000 240 Climbing Boston Center
05:47AM 42.9686 -72.8317 244° Southwest 323 372 26,000  Level Boston Center
05:48AM 42.9286 -72.9447 244° Southwest 338 389 26,000  Level Boston Center
05:49AM 42.8883 -73.0606 245° Southwest 343 395 26,000 -240 Level Boston Center
05:50AM 42.8483 -73.1736 244° Southwest 338 389 25,600 -720 Descending Boston Center
05:52AM 42.7800 -73.3650 244° Southwest 297 342 24,000 -540 Descending Boston Center
05:53AM 42.7461 -73.4550 243° Southwest 277 319 24,000  Level Boston Center
05:54AM 42.7139 -73.5450 244° Southwest 277 319 24,000  Level Boston Center
05:55AM 42.6797 -73.6347 243° Southwest 277 319 24,000  Level Boston Center
05:56AM 42.6433 -73.7272 242° Southwest 272 313 24,000  Level Boston Center
05:57AM 42.6089 -73.8194 243° Southwest 272 313 24,000  Level Boston Center
05:58AM 42.5828 -73.8978 246° West 272 313 24,000  Level Boston Center
05:59AM 42.5483 -73.9844 242° Southwest 266 306 24,000  Level Boston Center
06:00AM 42.5158 -74.0739 244° Southwest 266 306 24,000  Level Boston Center
06:01AM 42.4833 -74.1603 243° Southwest 261 300 24,000  Level Boston Center
06:02AM 42.4506 -74.2494 244° Southwest 261 300 24,000  Level Boston Center
06:03AM 42.4181 -74.3356 243° Southwest 261 300 24,000  Level Boston Center
06:04AM 42.3808 -74.4328 243° Southwest 261 300 24,000  Level Boston Center
06:05AM 42.3458 -74.5217 242° Southwest 261 300 24,000  Level Boston Center
06:06AM 42.3131 -74.6075 243° Southwest 261 300 24,000  Level Boston Center
06:08AM 42.2517 -74.7686 243° Southwest 262 302 24,000  Level New York Center
06:09AM 42.2194 -74.8536 243° Southwest 262 302 24,000 -60 Level New York Center
06:10AM 42.1831 -74.9408 241° Southwest 262 302 23,900 -780 Descending New York Center
06:11AM 42.1247 -75.0042 219° Southwest 255 293 22,500 -1,440 Descending New York Center
06:12AM 42.0647 -75.0561 213° Southwest 255 293 21,100 -1,380 Descending New York Center
06:13AM 42.0047 -75.0997 208° Southwest 255 293 19,800 -1,080 Descending New York Center
06:14AM 41.9444 -75.1517 213° Southwest 255 293 19,000 -420 Descending New York Center
06:15AM 41.8867 -75.1978 211° Southwest 255 293 19,000  Level New York Center
06:16AM 41.8308 -75.2442 212° Southwest 260 299 19,000  Level New York Center
06:17AM 41.7706 -75.2931 211° Southwest 260 299 19,000 -720 Level New York Center
06:18AM 41.7039 -75.3469 211° Southwest 260 299 17,600 -1,380 Descending New York Center
06:19AM 41.6439 -75.3956 211° Southwest 260 299 16,300 -1,380 Descending New York Center
06:20AM 41.5836 -75.4439 211° Southwest 260 299 15,000 -1,320 Descending New York Center
06:21AM 41.5319 -75.4847 211° Southwest 260 299 13,800 -1,200 Descending New York Center
06:22AM 41.4783 -75.5281 211° Southwest 255 293 12,600 -960 Descending New York Center
06:23AM 41.4136 -75.5789 211° Southwest 250 288 11,900 -360 Descending New York Center
06:24AM 41.3664 -75.6169 211° Southwest 250 288 11,900  Level New York Center
06:25AM 41.2994 -75.6700 211° Southwest 250 288 11,900  Level New York Center
06:26AM 41.2342 -75.6900 193° South 250 288 11,900  Level New York Center
06:27AM 41.1633 -75.6906 180° South 262 302 11,900  Level New York Center
06:28AM 41.0822 -75.6872 178° South 262 302 11,900  Level New York Center
06:29AM 41.0114 -75.6878 180° South 256 295 12,000  Climbing New York Center
06:30AM 40.9383 -75.6878 180° South 261 300 12,000  Level New York Center
06:31AM 40.8656 -75.6853 179° South 266 306 12,000  Level New York Center
06:32AM 40.7989 -75.6861 181° South 266 306 12,000 -360 Level New York Center
06:33AM 40.7261 -75.6864 180° South 266 306 11,300 -960 Descending New York Center
06:34AM 40.6469 -75.6833 178° South 272 313 10,100 -600 Descending New York Center
06:35AM 40.5789 -75.6647 168° South 257 296 10,100  Level New York Center
06:35AM 40.5475 -75.6203 133° Southeast 290 334 10,100 -120 Level FAA TRACON SMA TRACON (SMA)
06:36AM 40.5333 -75.5925 124° Southeast 288 331 10,000  Descending FAA TRACON SMA TRACON (SMA)
06:36AM 40.5192 -75.5664 126° Southeast 289 333 10,100 120 Climbing FAA TRACON SMA TRACON (SMA)
06:36AM 40.5019 -75.5339 125° Southeast 294 338 10,100  Level FAA TRACON SMA TRACON (SMA)
06:37AM 40.4883 -75.5044 121° Southeast 291 335 10,100  Level FAA TRACON SMA TRACON (SMA)
06:37AM 40.4708 -75.4708 124° Southeast 289 333 10,100  Level FAA TRACON SMA TRACON (SMA)
06:37AM 40.4569 -75.4433 124° Southeast 292 336 10,100  Level FAA TRACON SMA TRACON (SMA)
06:38AM 40.4386 -75.4239 141° Southeast 270 311 10,100 -180 Level FAA TRACON SMA TRACON (SMA)
06:38AM 40.4144 -75.4033 147° Southeast 271 312 10,000  Descending FAA TRACON SMA TRACON (SMA)
06:38AM 40.3947 -75.3900 153° Southeast 265 305 10,100 120 Climbing FAA TRACON SMA TRACON (SMA)
06:39AM 40.3747 -75.3747 150° Southeast 266 306 10,100 -480 Level FAA TRACON SMA TRACON (SMA)
06:39AM 40.3511 -75.3564 149° Southeast 264 304 9,800 -1,200 Descending FAA TRACON SMA TRACON (SMA)
06:39AM 40.3311 -75.3403 148° Southeast 262 302 9,300 -1,800 Descending FAA TRACON SMA TRACON (SMA)
06:40AM 40.3119 -75.3269 152° Southeast 260 299 8,600 -2,280 Descending FAA TRACON SMA TRACON (SMA)
06:40AM 40.2872 -75.3092 151° Southeast 261 300 7,800 -2,580 Descending FAA TRACON SMA TRACON (SMA)
06:40AM 40.2681 -75.2936 148° Southeast 264 304 6,900 -2,400 Descending FAA TRACON SMA TRACON (SMA)
06:41AM 40.2475 -75.2778 150° Southeast 274 315 6,200 -1,260 Descending FAA TRACON SMA TRACON (SMA)
06:41AM 40.2222 -75.2578 149° Southeast 281 323 6,100 -180 Descending FAA TRACON SMA TRACON (SMA)
06:41AM 40.2000 -75.2419 151° Southeast 284 327 6,100 -180 Level FAA TRACON SMA TRACON (SMA)
06:42AM 40.1786 -75.2261 151° Southeast 282 325 6,000 -480 Descending FAA TRACON SMA TRACON (SMA)
06:42AM 40.1531 -75.2061 149° Southeast 280 322 5,800 -1,080 Descending FAA TRACON SMA TRACON (SMA)
06:42AM 40.1322 -75.1903 150° Southeast 281 323 5,300 -1,680 Descending FAA TRACON SMA TRACON (SMA)
06:43AM 40.1108 -75.1736 149° Southeast 289 333 4,700 -1,200 Descending FAA TRACON SMA TRACON (SMA)
06:43AM 40.0906 -75.1575 149° Southeast 289 333 4,500 -480 Descending FAA TRACON SMA TRACON (SMA)
06:43AM 40.0639 -75.1386 152° Southeast 246 283 4,400 -180 Descending FAA TRACON SMA TRACON (SMA)
06:44AM 40.0464 -75.1256 150° Southeast 237 273 4,400 -780 Level FAA TRACON SMA TRACON (SMA)
06:44AM 40.0264 -75.1103 150° Southeast 223 257 3,900 -1,500 Descending FAA TRACON SMA TRACON (SMA)
06:44AM 40.0100 -75.0978 150° Southeast 225 259 3,400 -1,200 Descending FAA TRACON SMA TRACON (SMA)
06:45AM 40.0000 -75.0764 121° Southeast 235 270 3,100 -480 Descending FAA TRACON SMA TRACON (SMA)
06:45AM 39.9989 -75.0522 93° East 229 264 3,100  Level FAA TRACON SMA TRACON (SMA)
06:45AM 39.9953 -75.0233 99° East 225 259 3,100 -480 Level FAA TRACON SMA TRACON (SMA)
06:46AM 39.9800 -75.0086 144° Southeast 249 287 2,800 -900 Descending FAA TRACON SMA TRACON (SMA)
06:46AM 39.9622 -75.0108 185° South 200 230 2,500 -900 Descending FAA TRACON SMA TRACON (SMA)
06:46AM 39.9428 -75.0197 199° South 194 223 2,200 -600 Descending FAA TRACON SMA TRACON (SMA)
06:47AM 39.9294 -75.0306 212° Southwest 185 213 2,100 -180 Descending FAA TRACON SMA TRACON (SMA)
06:47AM 39.9153 -75.0486 224° Southwest 182 209 2,100 120 Level FAA TRACON SMA TRACON (SMA)
06:47AM 39.9061 -75.0639 232° Southwest 156 180 2,200 120 Climbing FAA TRACON SMA TRACON (SMA)
06:48AM 39.9033 -75.0800 257° West 146 168 2,200 -180 Level FAA TRACON SMA TRACON (SMA)
06:48AM 39.9003 -75.0964 256° West 149 171 2,100 -780 Descending FAA TRACON SMA TRACON (SMA)
06:48AM 39.8964 -75.1167 256° West 149 171 1,700 -900 Descending FAA TRACON SMA TRACON (SMA)
06:49AM 39.8933 -75.1308 254° West 142 163 1,500 -600 Descending FAA TRACON SMA TRACON (SMA)
06:49AM 39.8914 -75.1458 260° West 117 135 1,300 -600 Descending FAA TRACON SMA TRACON (SMA)